Time;durP1;ratioP1;P1;durP2;ratioP2;P2;SDS_P1;SDS_P2;PMS_P1;PMS_P2;Temp;Humidity;BMP_temperature;BMP_pressure;BME280_temperature;BME280_humidity;BME280_pressure;Samples;Min_cycle;Max_cycle;Signal;HPM_P1;HPM_P2
2021/06/13 01:47:27;;;;;;;;;11.75;10.50;;;;;-144.77;100.00;61770.03;5430644;23;46942;-83
2021/06/13 01:57:19;;;;;;;;;7.00;6.25;;;;;-144.77;100.00;61770.03;4918378;28;47043;-84
2021/06/13 01:59:46;;;;;;;;;10.50;8.00;;;;;-144.77;100.00;61770.03;4916952;28;47086;-83
2021/06/13 02:05:55;;;;;;;;;7.00;7.00;;;;;-144.77;100.00;61770.03;4878591;29;47105;-80
2021/06/13 02:08:58;;;;;;;;;9.75;9.00;;;;;-144.77;100.00;61770.03;4881696;29;48020;-84
2021/06/13 02:11:56;;;;;;;;;8.50;7.25;;;;;-144.77;100.00;61770.03;4855510;29;46950;-83
2021/06/13 03:01:13;;;;;;;;;7.00;6.75;;;;;-144.77;100.00;61770.03;4630458;30;47093;-83
2021/06/13 03:03:43;;;;;;;;;12.50;9.50;;;;;-144.77;100.00;61770.03;4632646;30;49178;-83
2021/06/13 03:06:20;;;;;;;;;11.75;10.00;;;;;-144.77;100.00;61770.03;4647606;30;47014;-83
2021/06/13 03:08:51;;;;;;;;;8.50;8.00;;;;;-144.77;100.00;61770.03;4668848;29;46913;-83
2021/06/13 03:11:20;;;;;;;;;10.00;8.75;;;;;-144.77;100.00;61770.03;4764588;29;47128;-83
2021/06/13 03:13:51;;;;;;;;;9.25;8.00;;;;;-144.77;100.00;61770.03;4781277;29;47986;-83
2021/06/13 03:16:18;;;;;;;;;10.75;9.00;;;;;-144.77;100.00;61770.03;4816145;29;47077;-83
2021/06/13 03:18:56;;;;;;;;;8.00;8.00;;;;;-144.77;100.00;61770.03;4870959;29;46991;-84
2021/06/13 03:21:48;;;;;;;;;9.00;8.25;;;;;-144.77;100.00;61770.03;4852445;29;47384;-83
2021/06/13 03:24:37;;;;;;;;;;;;;;;;;;;;;
2021/06/13 03:27:07;;;;;;;;;8.50;8.00;;;;;-144.77;100.00;61770.03;4899629;28;74013;-83
2021/06/13 03:30:15;;;;;;;;;8.00;8.00;;;;;-144.77;100.00;61770.03;4942277;28;46939;-84
2021/06/13 03:33:06;;;;;;;;;;;;;;;;;;;;;
2021/06/13 03:35:32;;;;;;;;;14.00;8.50;;;;;-144.77;100.00;61770.03;4941956;28;76892;-83
2021/06/13 03:42:10;;;;;;;;;;;;;;;;;;;;;
2021/06/13 03:52:42;;;;;;;;;;;;;;;;;;;;;
2021/06/13 03:55:58;;;;;;;;;;;;;;;;;;;;;
2021/06/13 03:59:20;;;;;;;;;;;;;;;;;;;;;
2021/06/13 04:01:46;;;;;;;;;10.00;7.75;;;;;-144.77;100.00;61770.03;4923267;28;77024;-82
2021/06/13 04:04:20;;;;;;;;;9.00;8.75;;;;;-144.77;100.00;61770.03;4942813;28;46956;-84
2021/06/13 04:10:47;;;;;;;;;;;;;;;;;;;;;
2021/06/13 04:13:22;;;;;;;;;13.00;10.25;;;;;-144.77;100.00;61770.03;4939188;28;76041;-82
2021/06/13 04:15:51;;;;;;;;;9.00;9.00;;;;;-144.77;100.00;61770.03;4933661;28;46833;-82
2021/06/13 04:18:20;;;;;;;;;9.75;9.00;;;;;-144.77;100.00;61770.03;4941745;28;47011;-82
2021/06/13 04:20:52;;;;;;;;;12.25;9.25;;;;;-144.77;100.00;61770.03;4942865;28;47054;-82
2021/06/13 04:23:23;;;;;;;;;11.00;9.25;;;;;-144.77;100.00;61770.03;4942282;28;47267;-82
2021/06/13 04:26:01;;;;;;;;;;;;;;;;;;;;;
2021/06/13 04:29:05;;;;;;;;;;;;;;;;;;;;;
2021/06/13 04:31:43;;;;;;;;;14.75;12.25;;;;;-144.77;100.00;61770.03;4941218;28;68060;-83
2021/06/13 04:34:50;;;;;;;;;11.50;9.50;;;;;-144.77;100.00;61770.03;4941829;28;47235;-82
2021/06/13 04:37:42;;;;;;;;;;;;;;;;;;;;;
2021/06/13 04:40:51;;;;;;;;;9.00;9.00;;;;;-144.77;100.00;61770.03;4937002;28;72435;-84
2021/06/13 04:43:37;;;;;;;;;;;;;;;;;;;;;
2021/06/13 04:46:22;;;;;;;;;;;;;;;;;;;;;
2021/06/13 04:48:59;;;;;;;;;11.50;10.00;;;;;-144.77;100.00;61770.03;4939472;28;73958;-83
2021/06/13 04:52:22;;;;;;;;;;;;;;;;;;;;;
2021/06/13 07:04:23;;;;;;;;;8.00;5.50;;;;;-144.77;100.00;61770.03;4863315;29;47133;-89
2021/06/13 07:06:49;;;;;;;;;8.25;6.00;;;;;-144.77;100.00;61770.03;4935822;28;47151;-87
2021/06/13 07:09:14;;;;;;;;;7.50;7.25;;;;;-144.77;100.00;61770.03;4954861;28;46808;-85
2021/06/13 07:11:42;;;;;;;;;9.00;7.50;;;;;-144.77;100.00;61770.03;4961258;28;47021;-88
2021/06/13 07:14:07;;;;;;;;;4.75;4.75;;;;;-144.77;100.00;61770.03;4963043;28;47150;-86
2021/06/13 07:16:33;;;;;;;;;5.50;4.00;;;;;-144.77;100.00;61770.03;4952737;28;47869;-86
2021/06/13 07:19:01;;;;;;;;;8.50;7.00;;;;;-144.77;100.00;61770.03;4962614;28;47058;-84
2021/06/13 07:21:30;;;;;;;;;8.50;5.50;;;;;-144.77;100.00;61770.03;4961838;28;46892;-91
2021/06/13 07:23:55;;;;;;;;;9.25;6.25;;;;;-144.77;100.00;61770.03;4960434;28;46814;-85
2021/06/13 08:15:35;;;;;;;;;4.75;4.25;;;;;-144.77;100.00;61770.03;4919897;28;47320;-89
2021/06/13 08:21:48;;;;;;;;;4.00;4.00;;;;;-144.77;100.00;61770.03;5000921;28;47024;-86
2021/06/13 08:45:38;;;;;;;;;5.25;3.50;;;;;-144.77;100.00;61770.03;4894702;28;47186;-82
2021/06/13 08:48:55;;;;;;;;;;;;;;;;;;;;;
2021/06/13 08:51:37;;;;;;;;;;;;;;;;;;;;;
2021/06/13 09:06:50;;;;;;;;;5.25;3.25;;;;;-144.77;100.00;61770.03;4899541;28;47278;-84
2021/06/13 09:19:28;;;;;;;;;4.25;4.25;;;;;-144.77;100.00;61770.03;4825660;29;47153;-83
2021/06/13 09:21:56;;;;;;;;;4.25;3.00;;;;;-144.77;100.00;61770.03;4826303;29;47089;-84
2021/06/13 09:24:24;;;;;;;;;4.25;4.25;;;;;-144.77;100.00;61770.03;4917297;28;47299;-84
2021/06/13 09:26:52;;;;;;;;;4.00;4.00;;;;;-144.77;100.00;61770.03;4950218;28;47767;-85
2021/06/13 09:29:18;;;;;;;;;4.00;4.00;;;;;-144.77;100.00;61770.03;4960510;28;47104;-85
2021/06/13 09:31:45;;;;;;;;;5.25;4.00;;;;;-144.77;100.00;61770.03;4960645;28;47155;-86
2021/06/13 09:34:18;;;;;;;;;4.00;4.00;;;;;-144.77;100.00;61770.03;4960645;28;47084;-82
2021/06/13 09:36:44;;;;;;;;;4.50;4.00;;;;;-144.77;100.00;61770.03;4960764;28;47750;-86
2021/06/13 09:39:13;;;;;;;;;3.00;3.00;;;;;-144.77;100.00;61770.03;4960489;28;47169;-85
2021/06/13 09:41:43;;;;;;;;;4.50;3.50;;;;;-144.77;100.00;61770.03;4957398;28;47095;-86
2021/06/13 09:44:10;;;;;;;;;4.00;4.00;;;;;-144.77;100.00;61770.03;4959278;28;46929;-85
2021/06/13 09:46:39;;;;;;;;;4.00;2.50;;;;;-144.77;100.00;61770.03;4960037;28;46961;-85
2021/06/13 09:49:07;;;;;;;;;5.00;4.00;;;;;-144.77;100.00;61770.03;4947822;28;46865;-85
2021/06/13 09:51:36;;;;;;;;;4.75;4.25;;;;;-144.77;100.00;61770.03;4960332;28;46897;-81
2021/06/13 09:54:06;;;;;;;;;4.00;4.00;;;;;-144.77;100.00;61770.03;4960617;28;47098;-83
2021/06/13 09:56:36;;;;;;;;;3.00;3.00;;;;;-144.77;100.00;61770.03;4958838;28;48250;-84
2021/06/13 09:59:15;;;;;;;;;5.25;3.00;;;;;-144.77;100.00;61770.03;4958967;28;46968;-86
2021/06/13 10:01:54;;;;;;;;;3.50;3.50;;;;;-144.77;100.00;61770.03;4947768;28;47177;-83
2021/06/13 10:04:20;;;;;;;;;6.00;4.00;;;;;-144.77;100.00;61770.03;4954347;28;46837;-84
2021/06/13 10:06:48;;;;;;;;;5.25;3.75;;;;;-144.77;100.00;61770.03;4957968;28;46895;-84
2021/06/13 10:09:15;;;;;;;;;3.00;3.00;;;;;-144.77;100.00;61770.03;4977599;28;47500;-84
2021/06/13 10:11:42;;;;;;;;;3.50;3.00;;;;;-144.77;100.00;61770.03;4979984;28;47233;-86
2021/06/13 10:14:09;;;;;;;;;3.00;3.00;;;;;-144.77;100.00;61770.03;4976339;28;47236;-85
2021/06/13 10:16:45;;;;;;;;;3.00;2.25;;;;;-144.77;100.00;61770.03;4966347;28;47818;-87
2021/06/13 10:19:16;;;;;;;;;3.25;2.00;;;;;-144.77;100.00;61770.03;4958972;28;47262;-84
2021/06/13 10:21:54;;;;;;;;;6.50;3.00;;;;;-144.77;100.00;61770.03;4958884;28;46963;-84
2021/06/13 10:24:25;;;;;;;;;4.50;3.25;;;;;-144.77;100.00;61770.03;4957860;28;46972;-83
2021/06/13 10:26:59;;;;;;;;;3.00;2.50;;;;;-144.77;100.00;61770.03;4954101;28;47122;-84
2021/06/13 10:29:26;;;;;;;;;4.00;3.75;;;;;-144.77;100.00;61770.03;4959573;28;47152;-84
2021/06/13 10:31:55;;;;;;;;;3.00;2.00;;;;;-144.77;100.00;61770.03;4959872;28;46966;-83
2021/06/13 10:34:22;;;;;;;;;4.25;2.75;;;;;-144.77;100.00;61770.03;4959821;28;46972;-83
2021/06/13 10:36:49;;;;;;;;;3.00;3.00;;;;;-144.77;100.00;61770.03;4962518;28;47151;-83
2021/06/13 10:39:18;;;;;;;;;2.00;2.00;;;;;-144.77;100.00;61770.03;4958454;28;47168;-82
2021/06/13 10:41:45;;;;;;;;;3.25;3.00;;;;;-144.77;100.00;61770.03;4952314;28;46931;-85
2021/06/13 10:44:13;;;;;;;;;3.00;2.00;;;;;-144.77;100.00;61770.03;4954292;28;47020;-82
2021/06/13 10:46:41;;;;;;;;;4.50;2.75;;;;;-144.77;100.00;61770.03;4957819;28;47003;-82
2021/06/13 10:49:26;;;;;;;;;2.00;2.00;;;;;-144.77;100.00;61770.03;4956974;28;47320;-79
2021/06/13 10:52:03;;;;;;;;;3.75;3.00;;;;;-144.77;100.00;61770.03;4974170;28;47023;-82
2021/06/13 10:54:36;;;;;;;;;4.50;3.25;;;;;-144.77;100.00;61770.03;4959313;28;46953;-82
2021/06/13 10:57:04;;;;;;;;;4.50;4.25;;;;;-144.77;100.00;61770.03;4959291;28;46972;-82
2021/06/13 10:59:37;;;;;;;;;4.50;3.00;;;;;-144.77;100.00;61770.03;4958899;28;46865;-85
2021/06/13 11:02:09;;;;;;;;;1.75;1.75;;;;;-144.77;100.00;61770.03;4958325;28;46980;-84
2021/06/13 11:05:03;;;;;;;;;4.50;4.00;;;;;-144.77;100.00;61770.03;4954036;28;47131;-85
2021/06/13 11:12:52;;;;;;;;;8.50;8.50;;;;;-144.77;100.00;61770.03;4973726;28;47068;-80
2021/06/13 11:15:35;;;;;;;;;3.50;3.25;;;;;-144.77;100.00;61770.03;4972380;28;47114;-83
2021/06/13 11:18:16;;;;;;;;;4.50;4.00;;;;;-144.77;100.00;61770.03;4967347;28;47140;-81
2021/06/13 11:21:09;;;;;;;;;5.00;5.00;;;;;-144.77;100.00;61770.03;4975773;28;47046;-81
2021/06/13 11:23:38;;;;;;;;;3.00;1.75;;;;;-144.77;100.00;61770.03;4975361;28;46945;-82
2021/06/13 11:26:05;;;;;;;;;3.00;3.00;;;;;-144.77;100.00;61770.03;4966639;28;47043;-84
2021/06/13 11:28:41;;;;;;;;;3.00;3.00;;;;;-144.77;100.00;61770.03;4977558;28;47169;-86
2021/06/13 11:31:09;;;;;;;;;3.00;2.75;;;;;-144.77;100.00;61770.03;4976576;28;47086;-82
2021/06/13 11:33:39;;;;;;;;;4.00;3.00;;;;;-144.77;100.00;61770.03;4978517;28;47048;-84
2021/06/13 11:36:27;;;;;;;;;2.50;2.50;;;;;-144.77;100.00;61770.03;4978718;28;47286;-83
2021/06/13 11:39:16;;;;;;;;;3.75;3.75;;;;;-144.77;100.00;61770.03;4976863;28;48414;-83
2021/06/13 11:41:43;;;;;;;;;7.25;6.00;;;;;-144.77;100.00;61770.03;4969672;28;46911;-83
2021/06/13 11:44:33;;;;;;;;;4.00;3.00;;;;;-144.77;100.00;61770.03;4978344;28;47125;-81
2021/06/13 11:46:58;;;;;;;;;13.75;9.75;;;;;-144.77;100.00;61770.03;4972969;28;47084;-81
2021/06/13 11:49:45;;;;;;;;;7.25;7.00;;;;;-144.77;100.00;61770.03;4979653;28;47378;-81
2021/06/13 11:52:10;;;;;;;;;16.25;14.75;;;;;-144.77;100.00;61770.03;4980567;28;47216;-83
2021/06/13 11:54:50;;;;;;;;;6.00;4.75;;;;;-144.77;100.00;61770.03;4980453;28;47002;-82
2021/06/13 11:57:15;;;;;;;;;5.00;3.00;;;;;-144.77;100.00;61770.03;4980678;28;47198;-83
2021/06/13 11:59:44;;;;;;;;;3.50;3.00;;;;;-144.77;100.00;61770.03;4980725;28;47204;-81
2021/06/13 12:02:12;;;;;;;;;3.25;3.25;;;;;-144.77;100.00;61770.03;4981279;28;47171;-82
2021/06/13 12:04:41;;;;;;;;;2.25;2.25;;;;;-144.77;100.00;61770.03;4981233;28;47079;-84
2021/06/13 12:07:45;;;;;;;;;6.25;5.00;;;;;-144.77;100.00;61770.03;4975563;28;47218;-83
2021/06/13 12:10:21;;;;;;;;;2.00;2.00;;;;;-144.77;100.00;61770.03;4979371;28;47964;-84
2021/06/13 12:12:47;;;;;;;;;3.50;2.00;;;;;-144.77;100.00;61770.03;4980984;28;46932;-81
2021/06/13 12:15:15;;;;;;;;;3.50;3.50;;;;;-144.77;100.00;61770.03;4977115;28;46858;-81
2021/06/13 12:17:41;;;;;;;;;6.75;4.00;;;;;-144.77;100.00;61770.03;4974727;28;46984;-82
2021/06/13 12:20:08;;;;;;;;;3.25;3.25;;;;;-144.77;100.00;61770.03;4980927;28;47352;-82
2021/06/13 12:23:00;;;;;;;;;4.50;3.00;;;;;-144.77;100.00;61770.03;4963400;28;47059;-85
2021/06/13 12:28:11;;;;;;;;;2.00;2.00;;;;;-144.77;100.00;61770.03;4965948;28;47334;-84
2021/06/13 12:30:39;;;;;;;;;3.50;2.00;;;;;-144.77;100.00;61770.03;4976928;28;47080;-85
2021/06/13 12:33:13;;;;;;;;;3.25;3.25;;;;;-144.77;100.00;61770.03;4980949;28;47197;-88
2021/06/13 12:35:47;;;;;;;;;2.25;2.25;;;;;-144.77;100.00;61770.03;4979812;28;47111;-84
2021/06/13 12:38:18;;;;;;;;;2.50;2.50;;;;;-144.77;100.00;61770.03;4981410;28;46961;-80
2021/06/13 12:40:58;;;;;;;;;5.00;3.00;;;;;-144.77;100.00;61770.03;4977881;28;48086;-81
2021/06/13 12:43:40;;;;;;;;;3.00;2.25;;;;;-144.77;100.00;61770.03;4973749;28;46931;-81
2021/06/13 12:46:10;;;;;;;;;2.50;2.50;;;;;-144.77;100.00;61770.03;4979964;28;46929;-81
2021/06/13 12:48:36;;;;;;;;;0.00;0.00;;;;;-144.77;100.00;61770.03;4978672;28;47146;-82
2021/06/13 12:51:03;;;;;;;;;1.00;1.00;;;;;-144.77;100.00;61770.03;4971065;28;48054;-81
2021/06/13 12:53:43;;;;;;;;;1.25;1.25;;;;;-144.77;100.00;61770.03;4979165;28;46970;-84
2021/06/13 12:56:12;;;;;;;;;1.25;1.00;;;;;-144.77;100.00;61770.03;4963414;28;47086;-85
2021/06/13 12:58:44;;;;;;;;;2.00;2.00;;;;;-144.77;100.00;61770.03;4978416;28;46864;-85
2021/06/13 13:01:12;;;;;;;;;4.00;1.25;;;;;-144.77;100.00;61770.03;4980015;28;48096;-81
2021/06/13 13:03:42;;;;;;;;;3.00;1.25;;;;;-144.77;100.00;61770.03;4980394;28;46904;-80
2021/06/13 13:06:10;;;;;;;;;2.00;1.50;;;;;-144.77;100.00;61770.03;4980054;28;47023;-78
2021/06/13 13:08:44;;;;;;;;;2.00;2.00;;;;;-144.77;100.00;61770.03;4978499;28;46931;-87
2021/06/13 13:11:21;;;;;;;;;2.00;2.00;;;;;-144.77;100.00;61770.03;4976327;28;47087;-85
2021/06/13 13:13:53;;;;;;;;;4.75;3.00;;;;;-144.77;100.00;61770.03;4980305;28;47065;-80
2021/06/13 13:16:28;;;;;;;;;1.00;1.00;;;;;-144.77;100.00;61770.03;4977775;28;47090;-80
2021/06/13 13:18:55;;;;;;;;;0.75;0.75;;;;;-144.77;100.00;61770.03;4976619;28;47064;-80
2021/06/13 13:21:40;;;;;;;;;3.00;2.00;;;;;-144.77;100.00;61770.03;4980363;28;47194;-79
2021/06/13 13:24:28;;;;;;;;;3.00;2.00;;;;;-144.77;100.00;61770.03;4973237;28;47105;-78
2021/06/13 13:27:03;;;;;;;;;2.00;2.00;;;;;-144.77;100.00;61770.03;4973912;28;47067;-79
2021/06/13 13:29:43;;;;;;;;;1.25;1.25;;;;;-144.77;100.00;61770.03;4980045;28;46852;-80
2021/06/13 13:32:09;;;;;;;;;3.00;2.00;;;;;-144.77;100.00;61770.03;4974408;28;47369;-80
2021/06/13 13:34:35;;;;;;;;;1.25;1.25;;;;;-144.77;100.00;61770.03;4979888;28;47163;-80
2021/06/13 13:37:13;;;;;;;;;1.50;1.00;;;;;-144.77;100.00;61770.03;4979847;28;47071;-80
2021/06/13 13:39:40;;;;;;;;;1.25;1.00;;;;;-144.77;100.00;61770.03;4962529;28;47096;-80
2021/06/13 13:42:09;;;;;;;;;1.00;1.00;;;;;-144.77;100.00;61770.03;4973720;28;46996;-80
2021/06/13 13:44:53;;;;;;;;;1.00;1.00;;;;;-144.77;100.00;61770.03;4978442;28;47138;-83
2021/06/13 13:47:20;;;;;;;;;1.50;1.50;;;;;-144.77;100.00;61770.03;4975557;28;47073;-82
2021/06/13 13:49:45;;;;;;;;;1.75;1.00;;;;;-144.77;100.00;61770.03;4977059;28;47062;-80
2021/06/13 13:52:18;;;;;;;;;1.00;1.00;;;;;-144.77;100.00;61770.03;4951854;28;48245;-82
2021/06/13 13:54:46;;;;;;;;;1.00;1.00;;;;;-144.77;100.00;61770.03;4960931;28;47203;-90
2021/06/13 13:57:13;;;;;;;;;3.50;1.00;;;;;-144.77;100.00;61770.03;4962022;28;47103;-82
2021/06/13 13:59:41;;;;;;;;;2.25;1.00;;;;;-144.77;100.00;61770.03;4979154;28;47066;-81
2021/06/13 14:02:08;;;;;;;;;3.00;1.50;;;;;-144.77;100.00;61770.03;4979161;28;47153;-80
2021/06/13 14:04:36;;;;;;;;;1.75;1.75;;;;;-144.77;100.00;61770.03;4979269;28;47131;-83
2021/06/13 14:07:03;;;;;;;;;2.75;1.50;;;;;-144.77;100.00;61770.03;4978752;28;46942;-80
2021/06/13 14:09:32;;;;;;;;;1.75;1.00;;;;;-144.77;100.00;61770.03;4969196;28;47111;-81
2021/06/13 14:11:58;;;;;;;;;1.25;1.25;;;;;-144.77;100.00;61770.03;4974456;28;48595;-79
2021/06/13 14:14:24;;;;;;;;;1.00;1.00;;;;;-144.77;100.00;61770.03;4971955;28;47161;-79
2021/06/13 14:16:52;;;;;;;;;3.00;1.00;;;;;-144.77;100.00;61770.03;4978121;28;47166;-81
2021/06/13 14:19:20;;;;;;;;;1.00;1.00;;;;;-144.77;100.00;61770.03;4976379;28;47035;-80
2021/06/13 14:21:47;;;;;;;;;1.25;1.00;;;;;-144.77;100.00;61770.03;4977451;28;47014;-78
2021/06/13 14:24:13;;;;;;;;;1.75;1.00;;;;;-144.77;100.00;61770.03;4977242;28;47190;-77
2021/06/13 14:26:39;;;;;;;;;1.25;1.25;;;;;-144.77;100.00;61770.03;4974197;28;46972;-76
2021/06/13 14:29:04;;;;;;;;;2.00;1.00;;;;;-144.77;100.00;61770.03;4979590;28;46986;-78
2021/06/13 14:31:30;;;;;;;;;1.00;1.00;;;;;-144.77;100.00;61770.03;4978873;28;48034;-78
2021/06/13 14:33:56;;;;;;;;;1.00;0.50;;;;;-144.77;100.00;61770.03;4970224;28;47601;-78
2021/06/13 14:36:24;;;;;;;;;1.25;1.00;;;;;-144.77;100.00;61770.03;4978023;28;47121;-77
2021/06/13 14:38:50;;;;;;;;;1.50;1.50;;;;;-144.77;100.00;61770.03;4978199;28;47295;-78
2021/06/13 14:41:16;;;;;;;;;1.00;1.00;;;;;-144.77;100.00;61770.03;4977810;28;48470;-78
2021/06/13 14:43:41;;;;;;;;;3.00;2.00;;;;;-144.77;100.00;61770.03;4976163;28;46993;-80
2021/06/13 14:46:07;;;;;;;;;0.50;0.50;;;;;-144.77;100.00;61770.03;4979056;28;47026;-79
2021/06/13 14:48:32;;;;;;;;;1.00;1.00;;;;;-144.77;100.00;61770.03;4977677;28;47282;-80
2021/06/13 14:50:58;;;;;;;;;1.00;1.00;;;;;-144.77;100.00;61770.03;4978948;28;47836;-80
2021/06/13 14:53:23;;;;;;;;;2.25;2.00;;;;;-144.77;100.00;61770.03;4978175;28;46947;-80
2021/06/13 14:55:49;;;;;;;;;2.25;1.75;;;;;-144.77;100.00;61770.03;4974281;28;47303;-79
2021/06/13 14:58:14;;;;;;;;;0.50;0.00;;;;;-144.77;100.00;61770.03;4978610;28;47074;-79
2021/06/13 15:00:40;;;;;;;;;1.00;0.75;;;;;-144.77;100.00;61770.03;4978354;28;48177;-80
2021/06/13 15:03:06;;;;;;;;;1.50;1.00;;;;;-144.77;100.00;61770.03;4978625;28;46945;-80
2021/06/13 15:05:32;;;;;;;;;1.00;1.00;;;;;-144.77;100.00;61770.03;4979082;28;47130;-79
2021/06/13 15:07:58;;;;;;;;;1.25;1.25;;;;;-144.77;100.00;61770.03;4977511;28;47050;-80
2021/06/13 15:10:25;;;;;;;;;1.00;1.00;;;;;-144.77;100.00;61770.03;4978684;28;47831;-79
2021/06/13 15:12:51;;;;;;;;;1.50;1.50;;;;;-144.77;100.00;61770.03;4978867;28;47370;-80
2021/06/13 15:15:17;;;;;;;;;1.00;1.00;;;;;-144.77;100.00;61770.03;4972053;28;47129;-80
2021/06/13 15:17:43;;;;;;;;;2.00;2.00;;;;;-144.77;100.00;61770.03;4970280;28;47271;-78
2021/06/13 15:20:10;;;;;;;;;0.50;0.50;;;;;-144.77;100.00;61770.03;4973750;28;47702;-78
2021/06/13 15:22:35;;;;;;;;;2.25;2.25;;;;;-144.77;100.00;61770.03;4979611;28;47233;-78
2021/06/13 15:25:05;;;;;;;;;1.00;1.00;;;;;-144.77;100.00;61770.03;4971722;28;47036;-78
2021/06/13 15:27:31;;;;;;;;;2.00;1.00;;;;;-144.77;100.00;61770.03;4959549;28;47042;-78
2021/06/13 15:29:57;;;;;;;;;1.00;1.00;;;;;-144.77;100.00;61770.03;4978481;28;48578;-78
2021/06/13 15:32:23;;;;;;;;;1.50;0.25;;;;;-144.77;100.00;61770.03;4962003;28;47119;-79
2021/06/13 15:34:48;;;;;;;;;1.75;1.75;;;;;-144.77;100.00;61770.03;4981330;28;47021;-78
2021/06/13 15:37:14;;;;;;;;;1.25;1.25;;;;;-144.77;100.00;61770.03;4954011;28;47319;-77
2021/06/13 15:39:39;;;;;;;;;1.75;1.00;;;;;-144.77;100.00;61770.03;4981657;28;46995;-78
2021/06/13 15:42:16;;;;;;;;;4.00;2.50;;;;;-144.77;100.00;61770.03;4975960;28;47250;-77
2021/06/13 15:44:47;;;;;;;;;1.00;1.00;;;;;-144.77;100.00;61770.03;4976038;28;47099;-77
2021/06/13 15:47:14;;;;;;;;;2.50;2.00;;;;;-144.77;100.00;61770.03;4967881;28;47052;-77
2021/06/13 15:49:41;;;;;;;;;1.50;1.50;;;;;-144.77;100.00;61770.03;4973490;28;47117;-77
2021/06/13 15:52:07;;;;;;;;;1.50;0.00;;;;;-144.77;100.00;61770.03;4972706;28;47159;-78
2021/06/13 15:54:34;;;;;;;;;1.00;1.00;;;;;-144.77;100.00;61770.03;4980233;28;47081;-79
2021/06/13 15:57:00;;;;;;;;;2.25;1.00;;;;;-144.77;100.00;61770.03;4975376;28;47220;-76
2021/06/13 15:59:27;;;;;;;;;0.00;0.00;;;;;-144.77;100.00;61770.03;4981079;28;46990;-76
2021/06/13 16:01:54;;;;;;;;;1.50;0.00;;;;;-144.77;100.00;61770.03;4980596;28;47295;-76
2021/06/13 16:04:20;;;;;;;;;1.00;1.00;;;;;-144.77;100.00;61770.03;4981181;28;47167;-76
2021/06/13 16:06:46;;;;;;;;;1.00;0.00;;;;;-144.77;100.00;61770.03;4981790;28;47104;-75
2021/06/13 16:09:12;;;;;;;;;0.00;0.00;;;;;-144.77;100.00;61770.03;4980992;28;47815;-77
2021/06/13 16:11:37;;;;;;;;;0.75;0.75;;;;;-144.77;100.00;61770.03;4981543;28;46939;-79
2021/06/13 16:14:03;;;;;;;;;1.00;0.75;;;;;-144.77;100.00;61770.03;4981070;28;46916;-79
2021/06/13 16:16:29;;;;;;;;;0.25;0.25;;;;;-144.77;100.00;61770.03;4977232;28;47254;-79
2021/06/13 16:18:55;;;;;;;;;1.00;0.00;;;;;-144.77;100.00;61770.03;4975478;28;47975;-79
2021/06/13 16:21:21;;;;;;;;;0.00;0.00;;;;;-144.77;100.00;61770.03;4980976;28;46790;-79
2021/06/13 16:23:46;;;;;;;;;1.00;0.00;;;;;-144.77;100.00;61770.03;4963172;28;46918;-79
2021/06/13 16:26:12;;;;;;;;;0.50;0.50;;;;;-144.77;100.00;61770.03;4974581;28;47173;-80
2021/06/13 16:28:38;;;;;;;;;1.75;1.75;;;;;-144.77;100.00;61770.03;4979224;28;48007;-80
2021/06/13 16:31:03;;;;;;;;;0.50;0.50;;;;;-144.77;100.00;61770.03;4983582;28;47400;-80
2021/06/13 16:33:29;;;;;;;;;2.50;1.50;;;;;-144.77;100.00;61770.03;4971069;28;47426;-80
2021/06/13 16:35:54;;;;;;;;;1.75;1.00;;;;;-144.77;100.00;61770.03;4978115;28;47004;-80
2021/06/13 16:38:20;;;;;;;;;1.75;1.50;;;;;-144.77;100.00;61770.03;4967783;28;47897;-80
2021/06/13 16:40:52;;;;;;;;;0.50;0.50;;;;;-144.77;100.00;61770.03;4970054;28;47012;-80
2021/06/13 16:43:18;;;;;;;;;1.25;1.25;;;;;-144.77;100.00;61770.03;4980305;28;46971;-80
2021/06/13 16:45:43;;;;;;;;;1.25;1.00;;;;;-144.77;100.00;61770.03;4969747;28;47336;-80
2021/06/13 16:48:09;;;;;;;;;1.75;1.75;;;;;-144.77;100.00;61770.03;4966513;28;49082;-79
2021/06/13 16:50:34;;;;;;;;;2.75;2.00;;;;;-144.77;100.00;61770.03;4980431;28;46976;-80
2021/06/13 16:53:00;;;;;;;;;3.75;1.25;;;;;-144.77;100.00;61770.03;4981077;28;46946;-80
2021/06/13 16:55:26;;;;;;;;;3.00;2.00;;;;;-144.77;100.00;61770.03;4969090;28;47364;-80
2021/06/13 16:57:52;;;;;;;;;1.00;1.00;;;;;-144.77;100.00;61770.03;4979808;28;48094;-78
2021/06/13 17:00:18;;;;;;;;;1.50;1.50;;;;;-144.77;100.00;61770.03;4970060;28;47115;-78
2021/06/13 17:02:44;;;;;;;;;2.00;2.00;;;;;-144.77;100.00;61770.03;4973450;28;47294;-78
2021/06/13 17:05:10;;;;;;;;;1.00;1.00;;;;;-144.77;100.00;61770.03;4979768;28;47059;-78
2021/06/13 17:07:36;;;;;;;;;1.25;1.25;;;;;-144.77;100.00;61770.03;4979577;28;47099;-78
2021/06/13 17:10:03;;;;;;;;;0.75;0.75;;;;;-144.77;100.00;61770.03;4980104;28;47179;-78
2021/06/13 17:12:28;;;;;;;;;2.00;1.75;;;;;-144.77;100.00;61770.03;4980241;28;47019;-78
2021/06/13 17:14:54;;;;;;;;;2.00;2.00;;;;;-144.77;100.00;61770.03;4973400;28;47321;-80
2021/06/13 17:17:20;;;;;;;;;3.00;2.00;;;;;-144.77;100.00;61770.03;4969078;28;48714;-82
2021/06/13 17:19:46;;;;;;;;;2.00;2.00;;;;;-144.77;100.00;61770.03;4958643;28;47043;-81
2021/06/13 17:22:11;;;;;;;;;1.00;1.00;;;;;-144.77;100.00;61770.03;4972235;28;47031;-80
2021/06/13 17:24:40;;;;;;;;;2.00;2.00;;;;;-144.77;100.00;61770.03;4974060;28;47164;-84
2021/06/13 17:27:07;;;;;;;;;2.00;2.00;;;;;-144.77;100.00;61770.03;4977817;28;47127;-81
2021/06/13 17:29:33;;;;;;;;;1.00;1.00;;;;;-144.77;100.00;61770.03;4979268;28;47137;-81
2021/06/13 17:31:59;;;;;;;;;3.50;3.00;;;;;-144.77;100.00;61770.03;4974767;28;47028;-82
2021/06/13 17:34:30;;;;;;;;;2.25;1.75;;;;;-144.77;100.00;61770.03;4978268;28;48340;-83
2021/06/13 17:37:18;;;;;;;;;1.00;1.00;;;;;-144.77;100.00;61770.03;4972704;28;47390;-83
2021/06/13 17:39:45;;;;;;;;;1.50;1.50;;;;;-144.77;100.00;61770.03;4979686;28;47161;-83
2021/06/13 17:42:11;;;;;;;;;3.00;2.00;;;;;-144.77;100.00;61770.03;4975481;28;47150;-82
2021/06/13 17:44:36;;;;;;;;;2.50;2.00;;;;;-144.77;100.00;61770.03;4975290;28;47022;-81
2021/06/13 17:47:02;;;;;;;;;3.00;2.00;;;;;-144.77;100.00;61770.03;4973703;28;47901;-83
2021/06/13 17:49:30;;;;;;;;;1.75;1.50;;;;;-144.77;100.00;61770.03;4974327;28;47288;-81
2021/06/13 17:51:56;;;;;;;;;3.50;1.75;;;;;-144.77;100.00;61770.03;4978542;28;46986;-83
2021/06/13 17:54:22;;;;;;;;;3.00;2.00;;;;;-144.77;100.00;61770.03;4971257;28;47260;-83
2021/06/13 17:56:51;;;;;;;;;2.75;2.25;;;;;-144.77;100.00;61770.03;4972346;28;48033;-83
2021/06/13 17:59:19;;;;;;;;;0.00;0.00;;;;;-144.77;100.00;61770.03;4978674;28;47043;-83
2021/06/13 18:01:46;;;;;;;;;2.00;2.00;;;;;-144.77;100.00;61770.03;4976941;28;47135;-83
2021/06/13 18:04:11;;;;;;;;;4.75;4.25;;;;;-144.77;100.00;61770.03;4971684;28;46972;-83
2021/06/13 18:06:38;;;;;;;;;2.50;2.50;;;;;-144.77;100.00;61770.03;4977079;28;47306;-82
2021/06/13 18:09:04;;;;;;;;;1.50;1.50;;;;;-144.77;100.00;61770.03;4975467;28;47082;-82
2021/06/13 18:11:31;;;;;;;;;1.00;1.00;;;;;-144.77;100.00;61770.03;4973933;28;47051;-83
2021/06/13 18:13:56;;;;;;;;;1.50;1.50;;;;;-144.77;100.00;61770.03;4979472;28;46945;-81
2021/06/13 18:16:22;;;;;;;;;1.50;1.00;;;;;-144.77;100.00;61770.03;4971697;28;47056;-81
2021/06/13 18:18:47;;;;;;;;;1.50;1.50;;;;;-144.77;100.00;61770.03;4979458;28;47008;-82
2021/06/13 18:21:13;;;;;;;;;1.75;1.75;;;;;-144.77;100.00;61770.03;4979604;28;46897;-82
2021/06/13 18:23:39;;;;;;;;;1.50;1.50;;;;;-144.77;100.00;61770.03;4977680;28;46998;-83
2021/06/13 18:26:06;;;;;;;;;2.00;2.00;;;;;-144.77;100.00;61770.03;4960974;28;47336;-83
2021/06/13 18:28:32;;;;;;;;;1.00;1.00;;;;;-144.77;100.00;61770.03;4979271;28;47258;-87
2021/06/13 18:30:58;;;;;;;;;2.25;2.00;;;;;-144.77;100.00;61770.03;4978812;28;46997;-86
2021/06/13 18:33:24;;;;;;;;;3.25;3.00;;;;;-144.77;100.00;61770.03;4978006;28;47131;-86
2021/06/13 18:35:50;;;;;;;;;2.75;2.25;;;;;-144.77;100.00;61770.03;4955340;28;47888;-87
2021/06/13 18:38:16;;;;;;;;;4.25;1.25;;;;;-144.77;100.00;61770.03;4979174;28;47146;-86
2021/06/13 18:40:43;;;;;;;;;3.00;3.00;;;;;-144.77;100.00;61770.03;4976836;28;46968;-86
2021/06/13 18:43:09;;;;;;;;;1.00;1.00;;;;;-144.77;100.00;61770.03;4970895;28;47219;-85